Time;durP1;ratioP1;P1;durP2;ratioP2;P2;SDS_P1;SDS_P2;PMS_P1;PMS_P2;Temp;Humidity;BMP_temperature;BMP_pressure;BME280_temperature;BME280_humidity;BME280_pressure;Samples;Min_cycle;Max_cycle;Signal;HPM_P1;HPM_P2
2023/10/07 00:00:40;;;;;;;4.50;3.10;;;21.70;56.90;;;;;;5017096;28;20510;-64
2023/10/07 00:03:06;;;;;;;3.03;2.67;;;21.70;56.90;;;;;;5017114;28;20581;-65
2023/10/07 00:05:35;;;;;;;4.00;3.33;;;21.70;56.90;;;;;;5016738;28;20415;-65
2023/10/07 00:08:20;;;;;;;3.93;3.00;;;21.70;56.90;;;;;;5016567;28;20415;-65
2023/10/07 00:10:48;;;;;;;3.10;2.80;;;21.70;57.00;;;;;;5016333;28;20400;-65
2023/10/07 00:13:16;;;;;;;3.00;2.70;;;21.70;56.90;;;;;;5016006;28;20963;-65
2023/10/07 00:15:43;;;;;;;3.53;2.83;;;21.70;56.90;;;;;;5016090;28;20454;-66
2023/10/07 00:18:13;;;;;;;3.40;2.97;;;21.70;56.90;;;;;;5016839;28;20423;-65
2023/10/07 00:20:53;;;;;;;4.10;3.27;;;21.70;56.90;;;;;;5016353;28;20408;-65
2023/10/07 00:23:21;;;;;;;4.27;3.83;;;21.70;56.90;;;;;;5016362;28;20430;-63
2023/10/07 00:25:51;;;;;;;3.70;2.90;;;21.70;56.90;;;;;;5016622;28;20836;-64
2023/10/07 00:28:28;;;;;;;3.97;3.23;;;21.70;56.90;;;;;;5016020;28;20438;-65
2023/10/07 00:30:55;;;;;;;4.20;3.30;;;21.70;57.00;;;;;;5016344;28;20486;-66
2023/10/07 00:33:22;;;;;;;5.93;3.50;;;21.70;56.90;;;;;;5015832;28;20439;-65
2023/10/07 00:35:54;;;;;;;4.50;2.90;;;21.70;57.00;;;;;;5015471;28;20517;-66
2023/10/07 00:38:23;;;;;;;3.23;2.93;;;21.70;56.90;;;;;;5016170;28;20412;-65
2023/10/07 00:40:53;;;;;;;5.07;3.10;;;21.70;56.90;;;;;;5016231;28;20502;-65
2023/10/07 00:43:30;;;;;;;3.43;2.80;;;21.70;56.90;;;;;;5015919;28;20939;-65
2023/10/07 00:46:45;;;;;;;7.13;3.30;;;21.70;56.90;;;;;;5015759;28;20391;-66
2023/10/07 00:48:52;;;;;;;4.33;3.37;;;21.70;56.90;;;;;;4999161;28;20431;-66
2023/10/07 00:51:24;;;;;;;3.60;3.00;;;21.70;57.00;;;;;;4998405;28;20419;-65
2023/10/07 00:54:00;;;;;;;4.30;3.50;;;21.70;57.00;;;;;;5016387;28;20446;-63
2023/10/07 00:56:33;;;;;;;4.30;3.37;;;21.70;57.00;;;;;;5015831;28;20446;-66
2023/10/07 00:59:06;;;;;;;3.10;2.80;;;21.70;57.00;;;;;;5016162;28;20419;-65
2023/10/07 01:01:36;;;;;;;3.57;2.67;;;21.70;57.00;;;;;;5016317;28;20876;-66
2023/10/07 01:04:06;;;;;;;3.87;2.90;;;21.70;57.00;;;;;;5016303;28;20434;-65
2023/10/07 01:06:38;;;;;;;3.27;2.63;;;21.70;57.00;;;;;;5015728;28;20478;-66
2023/10/07 01:09:14;;;;;;;4.50;3.27;;;21.70;57.00;;;;;;5017144;28;20406;-66
2023/10/07 01:11:41;;;;;;;3.37;2.97;;;21.80;57.00;;;;;;5016793;28;20923;-66
2023/10/07 01:14:11;;;;;;;3.07;2.60;;;21.80;57.00;;;;;;5016761;28;20962;-65
2023/10/07 01:16:41;;;;;;;4.73;3.63;;;21.80;57.00;;;;;;5016682;28;20869;-65
2023/10/07 01:19:19;;;;;;;3.67;2.87;;;21.70;56.90;;;;;;5016508;28;20399;-65
2023/10/07 01:21:55;;;;;;;3.27;2.70;;;21.80;57.00;;;;;;5017280;28;20411;-66
2023/10/07 01:27:28;;;;;;;3.40;2.93;;;21.70;56.90;;;;;;5016758;28;20400;-65
2023/10/07 01:30:00;;;;;;;4.00;3.03;;;21.80;57.00;;;;;;5016236;28;20403;-65
2023/10/07 01:32:34;;;;;;;4.33;3.10;;;21.70;57.00;;;;;;5016294;28;20411;-65
2023/10/07 01:35:10;;;;;;;3.73;2.70;;;21.80;57.00;;;;;;5016523;28;20427;-65
2023/10/07 01:37:50;;;;;;;3.40;2.73;;;21.80;57.00;;;;;;5016318;28;20406;-65
2023/10/07 01:40:17;;;;;;;3.20;2.90;;;21.70;57.00;;;;;;5015949;28;20395;-66
2023/10/07 01:42:46;;;;;;;3.63;2.80;;;21.70;57.00;;;;;;5016220;28;20407;-65
2023/10/07 01:45:22;;;;;;;3.67;2.90;;;21.70;57.00;;;;;;5016511;28;20396;-65
2023/10/07 01:47:49;;;;;;;3.90;2.90;;;21.80;57.00;;;;;;5016159;28;20415;-65
2023/10/07 01:50:18;;;;;;;3.50;2.60;;;21.80;57.00;;;;;;5015886;28;20399;-66
2023/10/07 01:52:48;;;;;;;4.40;3.00;;;21.80;57.00;;;;;;5016205;28;20403;-64
2023/10/07 01:55:14;;;;;;;4.40;3.10;;;21.80;57.00;;;;;;5015933;28;20474;-65
2023/10/07 01:57:41;;;;;;;3.73;2.83;;;21.80;57.00;;;;;;5015591;28;20415;-64
2023/10/07 02:00:11;;;;;;;3.10;2.40;;;21.80;57.00;;;;;;5015999;28;20415;-65
2023/10/07 02:02:49;;;;;;;3.93;2.83;;;21.80;57.00;;;;;;5015573;28;20464;-65
2023/10/07 02:05:15;;;;;;;3.13;2.53;;;21.80;57.00;;;;;;5015694;28;20384;-65
2023/10/07 02:07:43;;;;;;;4.67;3.00;;;21.80;57.00;;;;;;5015636;28;20446;-65
2023/10/07 02:10:13;;;;;;;3.27;2.67;;;21.80;57.00;;;;;;5015531;28;20419;-65
2023/10/07 02:12:39;;;;;;;4.13;2.93;;;21.80;57.00;;;;;;5015610;28;20408;-64
2023/10/07 02:15:19;;;;;;;4.10;2.97;;;21.80;57.00;;;;;;5015744;28;20809;-64
2023/10/07 02:17:47;;;;;;;3.47;2.80;;;21.80;57.00;;;;;;5015353;28;20805;-65
2023/10/07 02:20:38;;;;;;;4.53;2.87;;;21.80;57.00;;;;;;5015375;28;20887;-65
2023/10/07 02:23:11;;;;;;;3.20;2.87;;;21.80;57.00;;;;;;5015456;28;20455;-64
2023/10/07 02:25:40;;;;;;;2.80;2.33;;;21.80;57.00;;;;;;5019487;28;20399;-65
2023/10/07 02:28:06;;;;;;;2.90;2.50;;;21.80;57.00;;;;;;5019332;28;20413;-65
2023/10/07 02:30:39;;;;;;;4.40;2.93;;;21.80;57.00;;;;;;5001519;28;20482;-63
2023/10/07 02:33:08;;;;;;;3.80;3.23;;;21.80;57.00;;;;;;5018821;28;20443;-65
2023/10/07 02:35:36;;;;;;;3.50;2.90;;;21.80;57.00;;;;;;5018482;28;20490;-66
2023/10/07 02:38:03;;;;;;;4.63;3.07;;;21.80;57.00;;;;;;5018052;28;20403;-65
2023/10/07 02:40:35;;;;;;;3.23;2.60;;;21.80;57.00;;;;;;5018820;28;20410;-65
2023/10/07 02:43:07;;;;;;;4.37;3.20;;;21.80;57.00;;;;;;5018635;28;20414;-65
2023/10/07 02:45:39;;;;;;;3.47;2.90;;;21.80;57.00;;;;;;5019043;28;20399;-65
2023/10/07 02:48:10;;;;;;;3.47;2.80;;;21.80;57.00;;;;;;5018623;28;20414;-65
2023/10/07 02:50:41;;;;;;;3.53;3.23;;;21.80;57.00;;;;;;5018649;28;20399;-65
2023/10/07 02:53:16;;;;;;;3.10;2.80;;;21.80;57.00;;;;;;5017780;28;20431;-65
2023/10/07 02:58:48;;;;;;;2.93;2.43;;;21.80;57.00;;;;;;4987803;28;20470;-65
2023/10/07 03:01:18;;;;;;;3.20;2.70;;;21.80;57.00;;;;;;5018593;28;20466;-66
2023/10/07 03:03:48;;;;;;;3.17;2.60;;;21.80;57.10;;;;;;5018355;28;20436;-65
2023/10/07 03:06:17;;;;;;;3.60;2.70;;;21.80;57.00;;;;;;5018348;28;20884;-64
2023/10/07 03:08:57;;;;;;;2.40;2.20;;;21.80;57.00;;;;;;5018175;28;20461;-64
2023/10/07 03:11:24;;;;;;;4.93;3.00;;;21.80;57.00;;;;;;5018734;28;20449;-65
2023/10/07 03:13:56;;;;;;;4.90;2.90;;;21.80;57.00;;;;;;5017774;28;20439;-65
2023/10/07 03:21:37;;;;;;;3.37;2.33;;;21.80;57.00;;;;;;5018051;28;20148;-65
2023/10/07 03:24:08;;;;;;;2.67;2.40;;;21.80;57.00;;;;;;5017611;28;20923;-65
2023/10/07 03:26:34;;;;;;;3.03;2.53;;;21.80;57.00;;;;;;5018126;28;20398;-65
2023/10/07 03:29:04;;;;;;;2.97;2.50;;;21.80;57.00;;;;;;5017204;28;20414;-66
2023/10/07 03:31:47;;;;;;;2.57;2.37;;;21.80;57.00;;;;;;5017609;28;20411;-64
2023/10/07 03:34:13;;;;;;;4.03;2.67;;;21.80;57.00;;;;;;5017474;28;20488;-65
2023/10/07 03:41:52;;;;;;;3.23;2.43;;;21.80;57.00;;;;;;5017797;28;20392;-66
2023/10/07 03:44:19;;;;;;;3.07;2.60;;;21.80;57.00;;;;;;5017450;28;20431;-66
2023/10/07 03:46:50;;;;;;;4.47;2.57;;;21.80;57.00;;;;;;5017490;28;20771;-66
2023/10/07 03:49:16;;;;;;;2.73;2.30;;;21.80;57.00;;;;;;5017037;28;20880;-65
2023/10/07 03:51:45;;;;;;;4.00;3.00;;;21.80;57.00;;;;;;5017696;28;20426;-66
2023/10/07 03:54:15;;;;;;;3.20;2.30;;;21.80;57.00;;;;;;5016820;28;20885;-65
2023/10/07 03:56:42;;;;;;;2.47;2.03;;;21.80;57.00;;;;;;5017764;28;20451;-65
2023/10/07 03:59:08;;;;;;;3.70;2.90;;;21.80;57.00;;;;;;5016730;28;20407;-65
2023/10/07 04:01:35;;;;;;;3.17;2.63;;;21.80;57.00;;;;;;5017298;28;20408;-65
2023/10/07 04:04:01;;;;;;;3.30;2.60;;;21.80;57.00;;;;;;5017012;28;20208;-65
2023/10/07 04:06:30;;;;;;;4.03;3.03;;;21.80;57.00;;;;;;5016905;28;20411;-66
2023/10/07 04:09:05;;;;;;;2.90;2.60;;;21.80;57.00;;;;;;5016897;28;20177;-65
2023/10/07 04:11:38;;;;;;;2.90;2.37;;;21.80;57.00;;;;;;5016893;28;20763;-65
2023/10/07 04:14:19;;;;;;;3.67;2.90;;;21.80;57.00;;;;;;5016863;28;20434;-66
2023/10/07 04:16:52;;;;;;;3.33;2.40;;;21.80;57.00;;;;;;5017133;28;20455;-66
2023/10/07 04:21:45;;;;;;;2.60;2.00;;;21.80;57.00;;;;;;5017257;28;20439;-63
2023/10/07 04:24:12;;;;;;;2.53;2.27;;;21.80;57.00;;;;;;5016923;28;20434;-65
2023/10/07 04:26:51;;;;;;;3.40;2.40;;;21.80;57.00;;;;;;5016733;28;20582;-66
2023/10/07 04:29:17;;;;;;;3.53;2.40;;;21.80;57.00;;;;;;5016677;28;20429;-65
2023/10/07 04:31:52;;;;;;;3.50;2.67;;;21.80;57.00;;;;;;5016635;28;20403;-65
2023/10/07 04:34:19;;;;;;;3.37;2.13;;;21.80;57.60;;;;;;5016928;28;20434;-66
2023/10/07 04:39:39;;;;;;;2.90;2.20;;;21.80;57.00;;;;;;5016852;28;20400;-65
2023/10/07 04:42:20;;;;;;;3.00;2.27;;;21.80;57.00;;;;;;5016449;28;20461;-65
2023/10/07 04:47:29;;;;;;;2.77;2.20;;;21.80;57.00;;;;;;5016046;28;20434;-66
2023/10/07 04:52:26;;;;;;;2.97;2.40;;;21.90;57.10;;;;;;5017585;28;20411;-65
2023/10/07 04:54:53;;;;;;;3.50;2.70;;;21.80;57.10;;;;;;5016458;28;20458;-65
2023/10/07 04:57:39;;;;;;;2.47;2.20;;;21.90;57.20;;;;;;5016372;28;20446;-66
2023/10/07 05:00:08;;;;;;;3.60;2.73;;;21.90;57.10;;;;;;5016107;28;20426;-65
2023/10/07 05:02:38;;;;;;;3.90;2.80;;;21.90;57.10;;;;;;5016159;28;20478;-66
2023/10/07 05:05:13;;;;;;;3.83;2.67;;;21.90;57.10;;;;;;5015869;28;20427;-66
2023/10/07 05:07:39;;;;;;;2.70;2.13;;;21.90;57.10;;;;;;5016491;28;20398;-65
2023/10/07 05:10:08;;;;;;;3.23;2.20;;;21.90;57.10;;;;;;5016228;28;20415;-66
2023/10/07 05:12:34;;;;;;;5.90;2.40;;;21.90;57.10;;;;;;4998412;28;20959;-66
2023/10/07 05:15:05;;;;;;;2.43;2.07;;;21.90;57.10;;;;;;5015954;28;20486;-66
2023/10/07 05:17:36;;;;;;;2.37;2.00;;;21.90;57.10;;;;;;5016219;28;20188;-66
2023/10/07 05:20:05;;;;;;;2.40;2.20;;;21.90;57.10;;;;;;5015734;28;21245;-66
2023/10/07 05:22:31;;;;;;;2.60;2.20;;;21.90;57.10;;;;;;5015974;28;20395;-64
2023/10/07 05:24:59;;;;;;;3.30;2.50;;;21.90;57.10;;;;;;5016141;28;20426;-65
2023/10/07 05:27:25;;;;;;;3.30;2.17;;;21.90;57.10;;;;;;5015942;28;20499;-65
2023/10/07 05:29:50;;;;;;;2.33;1.97;;;21.90;57.10;;;;;;5015657;28;20434;-65
2023/10/07 05:32:17;;;;;;;2.23;2.03;;;21.90;57.10;;;;;;5015977;28;20707;-66
2023/10/07 05:34:45;;;;;;;2.70;2.33;;;21.90;57.10;;;;;;5015785;28;20230;-65
2023/10/07 05:37:12;;;;;;;3.70;2.23;;;21.90;57.10;;;;;;5015841;28;20528;-65
2023/10/07 05:39:41;;;;;;;3.80;2.30;;;21.90;57.10;;;;;;5013656;28;20896;-65
2023/10/07 05:42:07;;;;;;;2.33;2.10;;;22.00;57.10;;;;;;5015250;28;20411;-66
2023/10/07 05:44:35;;;;;;;2.60;1.87;;;22.00;57.10;;;;;;5015387;28;20453;-66
2023/10/07 05:47:02;;;;;;;2.47;2.20;;;22.00;57.10;;;;;;5015654;28;20426;-65
2023/10/07 05:49:31;;;;;;;3.00;2.40;;;22.00;57.10;;;;;;4998188;28;20962;-65
2023/10/07 05:51:58;;;;;;;2.97;2.10;;;22.00;57.10;;;;;;5015526;28;20411;-65
2023/10/07 05:54:28;;;;;;;3.27;2.27;;;22.00;57.10;;;;;;5015533;28;20939;-64
2023/10/07 05:56:55;;;;;;;3.73;2.80;;;22.00;57.10;;;;;;5015599;28;20539;-65
2023/10/07 05:59:23;;;;;;;2.60;2.37;;;22.00;57.10;;;;;;5019141;28;20407;-66
2023/10/07 06:01:48;;;;;;;2.93;2.47;;;22.00;57.10;;;;;;5019570;28;20411;-66
2023/10/07 06:04:14;;;;;;;1.83;1.67;;;22.00;57.10;;;;;;5019442;28;20433;-66
2023/10/07 06:06:42;;;;;;;3.03;2.20;;;22.00;57.10;;;;;;5019897;28;20458;-65
2023/10/07 06:09:14;;;;;;;4.17;2.97;;;22.00;57.10;;;;;;5001456;28;21102;-66
2023/10/07 06:11:42;;;;;;;3.07;2.20;;;22.00;57.10;;;;;;5019075;28;20884;-66
2023/10/07 06:14:08;;;;;;;3.10;2.57;;;22.00;57.10;;;;;;5019084;28;20720;-66
2023/10/07 06:16:36;;;;;;;3.83;2.67;;;22.00;57.10;;;;;;5019440;28;20459;-66
2023/10/07 06:19:02;;;;;;;3.23;2.33;;;22.00;57.10;;;;;;5018968;28;20414;-66
2023/10/07 06:21:28;;;;;;;3.67;2.30;;;22.00;57.10;;;;;;5018903;28;20168;-64
2023/10/07 06:23:58;;;;;;;2.93;1.93;;;22.00;57.10;;;;;;5018782;28;20450;-66
2023/10/07 06:26:24;;;;;;;1.90;1.60;;;22.00;57.10;;;;;;5019044;28;20176;-65
2023/10/07 06:28:50;;;;;;;3.17;2.47;;;22.00;57.10;;;;;;5019103;28;20415;-65
2023/10/07 06:31:40;;;;;;;3.67;2.60;;;22.00;57.10;;;;;;5018845;28;20177;-66
2023/10/07 06:34:12;;;;;;;2.97;2.40;;;22.00;57.20;;;;;;5032917;28;20292;-65
2023/10/07 06:36:40;;;;;;;2.80;2.37;;;22.00;57.20;;;;;;5034287;28;20603;-66
2023/10/07 06:39:07;;;;;;;4.57;2.70;;;22.00;57.20;;;;;;5034348;28;20410;-66
2023/10/07 06:41:34;;;;;;;2.97;2.43;;;22.00;57.20;;;;;;5034303;28;20903;-66
2023/10/07 06:44:02;;;;;;;3.27;2.70;;;22.00;57.20;;;;;;5016341;28;20442;-66
2023/10/07 06:46:42;;;;;;;3.40;2.53;;;22.00;57.20;;;;;;5026986;28;20511;-66
2023/10/07 06:49:18;;;;;;;3.80;2.80;;;22.00;57.20;;;;;;4995445;28;20474;-66
2023/10/07 06:51:53;;;;;;;4.93;3.10;;;22.00;57.20;;;;;;4994894;28;20393;-64
2023/10/07 06:54:23;;;;;;;4.63;3.07;;;22.00;57.30;;;;;;4994982;28;20829;-67
2023/10/07 06:56:51;;;;;;;10.40;3.60;;;22.10;57.30;;;;;;4995168;28;20570;-66
2023/10/07 06:59:17;;;;;;;4.07;2.43;;;22.00;57.20;;;;;;4994965;28;20404;-66
2023/10/07 07:04:10;;;;;;;3.73;2.87;;;22.10;57.30;;;;;;4995399;28;20648;-65
2023/10/07 07:06:44;;;;;;;3.30;2.40;;;22.10;57.30;;;;;;4994853;28;20176;-65
2023/10/07 07:12:03;;;;;;;4.20;2.97;;;22.10;57.30;;;;;;4994899;28;20392;-65
2023/10/07 07:14:33;;;;;;;4.10;3.17;;;22.10;57.30;;;;;;4994172;28;20950;-66
2023/10/07 07:20:19;;;;;;;3.53;2.80;;;22.10;57.30;;;;;;4994432;28;20395;-65
2023/10/07 07:22:44;;;;;;;3.10;2.57;;;22.10;57.30;;;;;;4994094;28;20933;-66
2023/10/07 07:25:18;;;;;;;4.33;3.43;;;22.10;57.40;;;;;;4994485;28;20486;-65
2023/10/07 07:27:50;;;;;;;4.37;2.97;;;22.10;57.30;;;;;;4993955;28;20391;-64
2023/10/07 07:30:29;;;;;;;6.17;2.73;;;22.10;57.40;;;;;;4998849;28;20486;-67
2023/10/07 07:32:58;;;;;;;4.17;2.87;;;22.10;57.30;;;;;;5002661;28;20888;-63
2023/10/07 07:35:39;;;;;;;5.80;3.20;;;22.10;57.40;;;;;;5003937;28;20423;-64
2023/10/07 07:40:49;;;;;;;3.67;3.23;;;22.10;57.40;;;;;;5002952;28;20401;-66
2023/10/07 07:43:19;;;;;;;3.40;2.63;;;22.10;57.40;;;;;;5002061;28;20431;-66
2023/10/07 07:45:46;;;;;;;3.03;2.40;;;22.10;57.40;;;;;;5003619;28;20443;-66
2023/10/07 07:48:11;;;;;;;4.60;2.83;;;22.10;57.30;;;;;;5003323;28;20514;-65
2023/10/07 07:50:41;;;;;;;4.40;3.07;;;22.10;57.30;;;;;;5001881;28;20527;-67
2023/10/07 07:53:12;;;;;;;4.47;2.80;;;22.10;57.30;;;;;;5004381;28;20224;-66
2023/10/07 07:55:43;;;;;;;5.70;3.10;;;22.10;57.40;;;;;;5002354;28;20418;-65
2023/10/07 07:58:12;;;;;;;4.00;3.10;;;22.10;57.30;;;;;;5003407;28;20411;-64
2023/10/07 08:00:44;;;;;;;4.47;2.90;;;22.10;57.30;;;;;;5003721;28;20417;-64
2023/10/07 08:03:10;;;;;;;4.33;2.77;;;22.10;57.30;;;;;;5002742;28;20424;-62
2023/10/07 08:05:39;;;;;;;2.90;2.40;;;22.10;57.30;;;;;;4985248;28;20404;-66
2023/10/07 08:08:18;;;;;;;5.87;2.70;;;22.10;57.40;;;;;;5004598;28;20920;-66
2023/10/07 08:10:44;;;;;;;3.90;2.90;;;22.10;57.30;;;;;;5005031;28;20967;-65
2023/10/07 08:13:10;;;;;;;4.00;2.70;;;22.10;57.30;;;;;;5004046;28;20428;-65
2023/10/07 08:15:41;;;;;;;3.83;2.70;;;22.10;57.30;;;;;;5003683;28;20399;-65
2023/10/07 08:18:09;;;;;;;4.00;3.20;;;22.10;57.30;;;;;;5008788;28;20164;-66
2023/10/07 08:20:37;;;;;;;5.30;3.10;;;22.10;57.30;;;;;;4996551;28;20427;-65
2023/10/07 08:23:21;;;;;;;3.77;2.60;;;22.10;57.30;;;;;;5013138;28;20407;-65
2023/10/07 08:25:47;;;;;;;3.43;3.13;;;22.10;57.30;;;;;;5014237;28;20392;-66
2023/10/07 08:28:23;;;;;;;3.97;2.77;;;22.10;57.90;;;;;;5014140;28;20461;-67
2023/10/07 08:30:50;;;;;;;4.40;2.77;;;22.10;57.30;;;;;;5013785;28;20652;-65
2023/10/07 08:33:22;;;;;;;3.90;3.10;;;22.10;57.30;;;;;;5013576;28;20431;-65
2023/10/07 08:35:49;;;;;;;4.23;2.67;;;22.20;57.40;;;;;;5014106;28;20525;-65
2023/10/07 08:38:29;;;;;;;3.40;2.30;;;22.10;57.30;;;;;;5013737;28;20415;-65
2023/10/07 08:41:04;;;;;;;3.53;2.43;;;22.20;57.40;;;;;;5013808;28;20388;-66
2023/10/07 08:44:02;;;;;;;3.53;2.53;;;22.10;57.30;;;;;;5013374;28;20415;-65
2023/10/07 08:46:28;;;;;;;3.63;2.70;;;22.20;57.40;;;;;;5013390;28;20813;-66
2023/10/07 08:49:04;;;;;;;3.20;2.43;;;22.10;57.30;;;;;;5013172;28;20411;-64
2023/10/07 08:51:37;;;;;;;3.00;2.50;;;22.20;57.40;;;;;;5013306;28;20167;-64
2023/10/07 08:54:09;;;;;;;3.50;2.20;;;22.20;57.40;;;;;;5012856;28;20522;-64
2023/10/07 08:56:38;;;;;;;3.67;2.87;;;22.20;57.40;;;;;;5012831;28;20447;-64
2023/10/07 08:59:07;;;;;;;5.47;2.33;;;22.20;57.40;;;;;;5013195;28;20936;-66
2023/10/07 09:01:34;;;;;;;3.13;2.17;;;22.20;57.40;;;;;;5012952;28;20465;-65
2023/10/07 09:04:03;;;;;;;3.80;2.73;;;22.20;57.40;;;;;;5012645;28;20435;-65
2023/10/07 09:06:32;;;;;;;3.77;2.97;;;22.20;57.40;;;;;;5012762;28;20781;-65
2023/10/07 09:09:06;;;;;;;2.50;2.07;;;22.20;57.40;;;;;;5012741;28;20411;-64
2023/10/07 09:11:32;;;;;;;5.80;2.60;;;22.20;57.40;;;;;;5012906;28;20450;-64
2023/10/07 09:14:07;;;;;;;3.17;2.33;;;22.20;57.40;;;;;;5012461;28;20432;-65
2023/10/07 09:16:33;;;;;;;4.20;2.67;;;22.20;57.40;;;;;;5012767;28;20506;-64
2023/10/07 09:19:10;;;;;;;3.73;3.00;;;22.20;57.40;;;;;;5012781;28;20517;-64
2023/10/07 09:21:38;;;;;;;3.53;2.50;;;22.20;57.40;;;;;;5012560;28;20919;-65
2023/10/07 09:24:04;;;;;;;3.40;2.27;;;22.20;58.00;;;;;;5012428;28;20489;-64
2023/10/07 09:26:33;;;;;;;3.10;2.17;;;22.20;57.40;;;;;;5012201;28;20502;-65
2023/10/07 09:29:00;;;;;;;3.47;2.47;;;22.20;57.40;;;;;;5012598;28;20473;-64
2023/10/07 09:31:30;;;;;;;3.90;2.87;;;22.20;57.40;;;;;;5012588;28;20425;-63
2023/10/07 09:34:09;;;;;;;3.43;2.23;;;22.20;57.40;;;;;;5019064;28;20435;-64
2023/10/07 09:36:46;;;;;;;3.77;2.63;;;22.20;57.40;;;;;;5019041;28;20473;-65
2023/10/07 09:41:39;;;;;;;3.70;2.47;;;22.20;57.40;;;;;;5019282;28;20446;-65
2023/10/07 09:44:25;;;;;;;3.70;2.57;;;22.20;58.00;;;;;;5018919;28;20508;-65
2023/10/07 09:46:52;;;;;;;3.87;2.63;;;22.20;57.40;;;;;;5019041;28;20400;-64
2023/10/07 09:49:20;;;;;;;4.10;2.60;;;22.20;57.40;;;;;;5018951;28;20437;-64
2023/10/07 09:51:50;;;;;;;3.17;2.50;;;22.20;57.40;;;;;;5018748;28;20856;-66
2023/10/07 09:54:47;;;;;;;2.73;2.00;;;22.20;57.40;;;;;;5018526;28;20466;-63
2023/10/07 09:57:42;;;;;;;3.87;2.73;;;22.20;57.40;;;;;;5018495;28;20526;-65
2023/10/07 10:03:05;;;;;;;3.73;2.63;;;22.20;57.40;;;;;;5018586;28;20912;-64
2023/10/07 10:05:40;;;;;;;2.90;2.30;;;22.20;57.50;;;;;;5018409;28;20390;-65
2023/10/07 10:08:30;;;;;;;2.63;2.23;;;22.20;57.50;;;;;;5018359;28;20478;-65
2023/10/07 10:10:58;;;;;;;3.00;1.93;;;22.20;57.50;;;;;;5018347;28;20438;-64
2023/10/07 10:13:52;;;;;;;4.00;2.63;;;22.20;57.50;;;;;;5018578;28;20526;-64
2023/10/07 10:16:28;;;;;;;2.90;2.30;;;22.30;57.50;;;;;;5018400;28;20454;-64
2023/10/07 10:19:17;;;;;;;4.10;2.90;;;22.30;57.50;;;;;;5018496;28;20388;-66
2023/10/07 10:21:43;;;;;;;3.97;2.90;;;22.30;57.50;;;;;;5018361;28;20469;-65
2023/10/07 10:24:14;;;;;;;3.67;2.10;;;22.30;57.50;;;;;;5018386;28;20480;-66
2023/10/07 10:26:44;;;;;;;2.83;2.50;;;22.30;57.50;;;;;;5018242;28;20450;-65
2023/10/07 10:29:16;;;;;;;3.93;2.33;;;22.30;57.50;;;;;;5018041;28;20438;-66
2023/10/07 10:31:50;;;;;;;2.80;2.20;;;22.30;57.50;;;;;;5018119;28;20490;-64
2023/10/07 10:34:16;;;;;;;4.10;2.50;;;22.30;57.50;;;;;;5018379;28;20825;-65
2023/10/07 10:36:49;;;;;;;3.00;2.00;;;22.30;57.50;;;;;;5000487;28;20478;-64
2023/10/07 10:39:26;;;;;;;3.73;2.60;;;22.30;57.50;;;;;;5018588;28;20906;-64
2023/10/07 10:42:01;;;;;;;3.70;2.73;;;22.30;57.50;;;;;;5018468;28;20449;-66
2023/10/07 10:44:34;;;;;;;2.97;2.07;;;22.30;58.00;;;;;;5014761;28;20809;-65
2023/10/07 10:47:00;;;;;;;2.60;2.03;;;22.30;57.50;;;;;;5015133;28;20423;-64
2023/10/07 10:49:25;;;;;;;3.97;2.70;;;22.30;57.50;;;;;;5015187;28;20489;-64
2023/10/07 10:51:55;;;;;;;3.10;2.30;;;22.30;57.40;;;;;;5015164;28;20180;-65
2023/10/07 10:54:23;;;;;;;2.97;2.20;;;22.30;57.40;;;;;;5015385;28;20192;-65
2023/10/07 10:56:57;;;;;;;3.13;2.00;;;22.30;58.00;;;;;;5015123;28;20454;-65
2023/10/07 10:59:58;;;;;;;3.30;2.27;;;22.30;57.40;;;;;;5015459;28;20395;-65
2023/10/07 11:02:22;;;;;;;5.20;2.57;;;22.30;57.50;;;;;;5014433;28;20469;-65
2023/10/07 11:04:50;;;;;;;2.87;1.90;;;22.30;57.40;;;;;;5014759;28;20450;-64
2023/10/07 11:07:16;;;;;;;2.63;1.90;;;22.30;58.00;;;;;;5015217;28;20164;-65
2023/10/07 11:09:47;;;;;;;3.00;2.10;;;22.30;57.50;;;;;;5014729;28;20565;-64
2023/10/07 11:12:16;;;;;;;4.33;2.43;;;22.30;57.40;;;;;;5014811;28;20176;-65
2023/10/07 11:14:43;;;;;;;3.40;2.43;;;22.30;57.40;;;;;;5014695;28;20514;-63
2023/10/07 11:17:09;;;;;;;2.33;2.07;;;22.30;57.40;;;;;;5014637;28;20453;-65
2023/10/07 11:19:42;;;;;;;2.83;2.23;;;22.30;57.40;;;;;;5014807;28;20783;-65
2023/10/07 11:22:12;;;;;;;3.30;2.17;;;22.30;57.40;;;;;;5014553;28;20870;-65
2023/10/07 11:24:39;;;;;;;3.03;2.10;;;22.30;57.40;;;;;;5014594;28;20435;-64
2023/10/07 11:27:08;;;;;;;2.87;2.10;;;22.30;57.40;;;;;;5014656;28;20419;-64
2023/10/07 11:29:35;;;;;;;2.63;2.00;;;22.30;57.40;;;;;;5014598;28;20973;-65
2023/10/07 11:32:06;;;;;;;3.77;1.90;;;22.30;57.40;;;;;;5014428;28;20404;-65
2023/10/07 11:34:40;;;;;;;3.50;2.40;;;22.40;57.50;;;;;;5014178;28;20526;-65
2023/10/07 11:37:21;;;;;;;4.17;3.03;;;22.40;57.50;;;;;;5014277;28;20470;-64
2023/10/07 11:39:47;;;;;;;3.27;2.20;;;22.40;57.50;;;;;;5014442;28;20396;-64
2023/10/07 11:42:15;;;;;;;2.73;2.27;;;22.30;57.50;;;;;;5014107;28;20458;-66
2023/10/07 11:44:42;;;;;;;3.87;2.43;;;22.40;57.50;;;;;;5014036;28;20189;-64
2023/10/07 11:47:10;;;;;;;4.20;2.10;;;22.40;57.50;;;;;;5014072;28;20411;-65
2023/10/07 11:49:36;;;;;;;2.80;1.90;;;22.40;57.50;;;;;;5013958;28;20412;-67
2023/10/07 11:52:06;;;;;;;2.40;2.00;;;22.40;57.50;;;;;;5014235;28;20426;-64
2023/10/07 11:54:34;;;;;;;5.50;2.47;;;22.40;57.50;;;;;;5013611;28;20435;-65
2023/10/07 11:57:01;;;;;;;3.80;2.13;;;22.30;57.40;;;;;;5013735;28;20811;-65
2023/10/07 11:59:27;;;;;;;2.70;2.07;;;22.40;57.50;;;;;;4996194;28;20554;-65
2023/10/07 12:01:53;;;;;;;2.60;2.13;;;22.40;57.50;;;;;;5014023;28;20403;-64
2023/10/07 12:04:21;;;;;;;3.73;2.30;;;22.30;57.40;;;;;;5013767;28;20438;-66
2023/10/07 12:06:47;;;;;;;3.50;2.57;;;22.40;57.50;;;;;;5013869;28;20406;-66
2023/10/07 12:09:15;;;;;;;2.63;2.43;;;22.40;57.50;;;;;;5013921;28;20419;-65
2023/10/07 12:11:44;;;;;;;2.73;1.63;;;22.30;57.40;;;;;;5013574;28;20392;-64
2023/10/07 12:14:11;;;;;;;2.40;2.20;;;22.40;57.50;;;;;;5013663;28;20464;-65
2023/10/07 12:16:36;;;;;;;3.77;2.40;;;22.40;57.50;;;;;;5013516;28;20196;-65
2023/10/07 12:19:04;;;;;;;2.63;1.90;;;22.40;57.50;;;;;;5013685;28;20550;-65
2023/10/07 12:21:30;;;;;;;3.43;2.50;;;22.40;57.50;;;;;;5013832;28;20188;-64
2023/10/07 12:23:56;;;;;;;3.37;2.27;;;22.40;57.50;;;;;;5013571;28;20996;-66
2023/10/07 12:26:22;;;;;;;3.20;1.87;;;22.40;57.50;;;;;;5013225;28;20219;-61
2023/10/07 12:28:52;;;;;;;2.70;1.93;;;22.40;57.50;;;;;;5013144;28;20192;-61
2023/10/07 12:31:18;;;;;;;4.27;2.33;;;22.40;57.50;;;;;;5013465;28;20425;-65
2023/10/07 12:33:43;;;;;;;3.63;2.27;;;22.40;57.50;;;;;;5013512;28;20427;-64
2023/10/07 12:36:16;;;;;;;3.80;2.00;;;22.40;57.50;;;;;;5013270;28;20204;-64
2023/10/07 12:38:42;;;;;;;2.70;2.27;;;22.40;57.50;;;;;;5013308;28;20673;-65
2023/10/07 12:41:13;;;;;;;2.37;1.90;;;22.40;57.50;;;;;;5013023;28;20415;-65
2023/10/07 12:43:39;;;;;;;2.53;2.07;;;22.40;57.50;;;;;;5012995;28;20509;-65
2023/10/07 12:46:09;;;;;;;2.93;2.37;;;22.40;57.50;;;;;;5013063;28;20518;-64
2023/10/07 12:48:36;;;;;;;2.90;2.03;;;22.40;57.50;;;;;;5013357;28;20176;-65
2023/10/07 12:51:06;;;;;;;2.83;2.20;;;22.40;57.50;;;;;;5012990;28;20440;-65
2023/10/07 12:53:33;;;;;;;3.33;2.23;;;22.40;57.50;;;;;;5029903;28;20449;-64
2023/10/07 12:56:08;;;;;;;3.00;2.07;;;22.40;57.50;;;;;;5032697;28;20446;-65
2023/10/07 12:58:34;;;;;;;2.67;2.40;;;22.40;57.50;;;;;;5032708;28;20397;-64
2023/10/07 13:01:01;;;;;;;2.67;1.90;;;22.40;57.50;;;;;;5032503;28;20407;-65
2023/10/07 13:03:29;;;;;;;2.53;2.33;;;22.40;57.50;;;;;;5032722;28;20196;-65
2023/10/07 13:05:54;;;;;;;2.40;1.90;;;22.40;57.50;;;;;;5033156;28;20810;-65
2023/10/07 13:08:24;;;;;;;3.00;2.20;;;22.40;57.50;;;;;;5031971;28;20418;-65
2023/10/07 13:10:54;;;;;;;2.60;2.00;;;22.40;57.50;;;;;;5032365;28;20652;-66
2023/10/07 13:13:21;;;;;;;2.50;1.70;;;22.40;57.50;;;;;;5032548;28;20438;-65
2023/10/07 13:15:51;;;;;;;2.30;2.03;;;22.40;57.50;;;;;;5032400;28;20411;-65
2023/10/07 13:18:17;;;;;;;3.10;2.17;;;22.40;57.50;;;;;;5032616;28;20410;-64
2023/10/07 13:20:44;;;;;;;2.50;2.30;;;22.40;57.60;;;;;;5032360;28;20777;-67
2023/10/07 13:23:11;;;;;;;2.50;1.90;;;22.30;57.50;;;;;;5031920;28;20184;-66
2023/10/07 13:25:37;;;;;;;2.83;2.20;;;22.40;57.60;;;;;;5032201;28;20757;-65
2023/10/07 13:28:03;;;;;;;2.50;2.03;;;22.40;57.50;;;;;;5032177;28;20409;-64
2023/10/07 13:30:30;;;;;;;3.73;2.60;;;22.30;57.40;;;;;;5032360;28;20164;-65
2023/10/07 13:32:56;;;;;;;3.00;2.20;;;22.40;57.50;;;;;;5014314;28;20631;-64
2023/10/07 13:35:24;;;;;;;3.10;1.90;;;22.30;57.50;;;;;;5031837;28;20437;-66
2023/10/07 13:37:51;;;;;;;2.70;2.17;;;22.40;57.50;;;;;;5031871;28;20531;-65
2023/10/07 13:40:19;;;;;;;2.80;2.13;;;22.40;57.50;;;;;;5031980;28;20914;-65
2023/10/07 13:42:50;;;;;;;2.03;1.70;;;22.40;57.50;;;;;;5031960;28;20417;-64
2023/10/07 13:45:26;;;;;;;3.90;2.30;;;22.40;57.50;;;;;;5032086;28;20406;-66
2023/10/07 13:47:53;;;;;;;2.87;1.80;;;22.40;57.60;;;;;;5032478;28;20505;-65